Annapolis, Indiana
Current Conditions -  °F | °C
As of 12:55 PM on Friday 28 Nov 2014 (Local Time) from KPRG Reporting Station
Clear Clear  
Wind Chill: 22°   Ceiling: Unl
Heat Index: 33°   Visibility: 7mi
Dew Point: 28°   Wind: 17mph
Humidity: 82%   Direction: 170°S
Pressure: 30.19"   Gusts: NA
Location:  39.8468°N, 87.2662°W
Report Text: KPRG 281755Z AUTO 17015KT 7SM CLR 01/M02 A3019 RMK AO2 T00051022 10007 21061
Loading
Personal Weather Stations






























Interactive Weather Map New forecast layout! Learn more

10-Day Weather Forecast

Advertisements
Track Severe Weather on mobile